Warning: Javascript must be enabled to use all the features on this page!


Page Loading - Please Wait...

* We've detected you're using a mobile device. Find our mobile dedicated web site here.
Click to hideNews Bulletins
Click to hide state-specific text

Explore Real-time Water Data Using New Products from USGS TXWSC

View over 750 USGS real-time stream, lake, reservoir, precipitation, and groundwater stations in context with current weather and hazard conditions on both desktop and mobile devices.

Click to go to the Texas Water Dashboard Click to go to the WATER On-the-go app

Follow @USGS_TexasFlood and @USGS_TexasRain on Twitter to get current water level and precipitation data during flooding or severe rainfall events.


USGS 08195000 Frio Rv at Concan, TX

PROVISIONAL DATA SUBJECT TO REVISION

Click to hidestation-specific text
Funding for this site is provided by the cooperators / programs below:
Click to go to the Edwards Aquifer Authority web page

Edwards Aquifer Authority

Click to go to the Cooperative Matching Funds web page

Cooperative Matching Funds

 

Rainfall Disclaimer


retransmission, forecasts and summary of this location by the National Weather Service
Retransmission, forecasts and summary by the National Weather Service
This station managed by the San Antonio Field Unit.

Available Parameters Available Period
All 6 Available Parameters for this site
  
00010 Temperature, water 2013-07-25  2018-12-15
00045 Precipitation 2018-08-17  2018-12-15
00060 Discharge 1991-10-01  2018-12-15
00065 Gage height 2007-10-01  2018-12-15
00095 Specific cond at 25C 2013-07-02  2018-12-15
99133 NO3+NO2,water,insitu 2015-09-24  2018-12-15

Graph
Graph w/ stats
Graph w/o stats
Graph w/ (up to 3) parms
Table
Tab-separated
Days  (2)
 

  -- or --
Begin date
 

End date
 

Summary of all available data for this site
Instantaneous-data availability statement






Date / Time




Gage
height,
feet,




Dis-
charge,
ft3/s,



Precip-
itation
total,
inches,
Specif-
ic
conduc-
tance,
wat unf
uS/cm @
25 degC,



Temper-
ature,
water,
deg C,

Nitrate
+
nitrite
water,
in situ
mg/L as,
12/13/2018 00:00 CST4.19P  215P  0.00P  497P  15.1P  1.21P  
12/13/2018 00:15 CST4.19P  215P  0.00P  497P  15.1P     
12/13/2018 00:30 CST4.19P  215P  0.00P  496P  15.1P     
12/13/2018 00:45 CST4.19P  215P  0.00P  497P  15.0P     
12/13/2018 01:00 CST4.19P  215P  0.00P  497P  15.0P  1.21P  
12/13/2018 01:15 CST4.19P  215P  0.00P  497P  15.0P     
12/13/2018 01:30 CST4.19P  215P  0.00P  497P  15.0P     
12/13/2018 01:45 CST4.19P  215P  0.00P  497P  15.0P     
12/13/2018 02:00 CST4.19P  215P  0.00P  497P  15.0P  1.21P  
12/13/2018 02:15 CST4.19P  215P  0.00P  496P  14.9P     
12/13/2018 02:30 CST4.19P  215P  0.00P  497P  14.9P     
12/13/2018 02:45 CST4.19P  215P  0.00P  497P  14.9P     
12/13/2018 03:00 CST4.19P  215P  0.00P  497P  14.9P  1.21P  
12/13/2018 03:15 CST4.19P  215P  0.00P  497P  14.9P     
12/13/2018 03:30 CST4.18P  211P  0.00P  497P  14.9P     
12/13/2018 03:45 CST4.19P  215P  0.00P  497P  14.9P     
12/13/2018 04:00 CST4.19P  215P  0.00P  497P  14.9P  1.21P  
12/13/2018 04:15 CST4.19P  215P  0.00P  496P  14.8P     
12/13/2018 04:30 CST4.19P  215P  0.00P  497P  14.8P     
12/13/2018 04:45 CST4.19P  215P  0.00P  497P  14.8P     
12/13/2018 05:00 CST4.18P  211P  0.00P  496P  14.8P  1.21P  
12/13/2018 05:15 CST4.19P  215P  0.00P  497P  14.8P     
12/13/2018 05:30 CST4.19P  215P  0.00P  497P  14.8P     
12/13/2018 05:45 CST4.19P  215P  0.00P  497P  14.8P     
12/13/2018 06:00 CST4.18P  211P  0.00P  497P  14.8P  1.21P  
12/13/2018 06:15 CST4.18P  211P  0.00P  496P  14.8P     
12/13/2018 06:30 CST4.19P  215P  0.00P  497P  14.8P     
12/13/2018 06:45 CST4.18P  211P  0.00P  497P  14.8P     
12/13/2018 07:00 CST4.19P  215P  0.00P  497P  14.8P  1.21P  
12/13/2018 07:15 CST4.19P  215P  0.00P  496P  14.8P     
12/13/2018 07:30 CST4.19P  215P  0.00P  496P  14.8P     
12/13/2018 07:45 CST4.18P  211P  0.00P  497P  14.8P     
12/13/2018 08:00 CST4.19P  215P  0.00P  497P  14.8P  1.21P  
12/13/2018 08:15 CST4.18P  211P  0.00P  497P  14.8P     
12/13/2018 08:30 CST4.18P  211P  0.00P  496P  14.8P     
12/13/2018 08:45 CST4.18P  211P  0.00P  497P  14.8P     
12/13/2018 09:00 CST4.19P  215P  0.00P  497P  14.8P  1.21P  
12/13/2018 09:15 CST4.19P  215P  0.00P  497P  14.8P     
12/13/2018 09:30 CST4.19P  215P  0.00P  497P  14.9P     
12/13/2018 09:45 CST4.18P  211P  0.00P  498P  15.0P     
12/13/2018 10:00 CST4.19P  215P  0.00P  498P  15.0P  1.21P  
12/13/2018 10:15 CST4.20P  220P  0.00P  499P  15.1P     
12/13/2018 10:30 CST4.18P  211P  0.00P  498P  15.2P     
12/13/2018 10:45 CST4.18P  211P  0.00P  499P  15.2P     
12/13/2018 11:00 CST4.17P  206P  0.00P  499P  15.3P  1.21P  
12/13/2018 11:15 CST4.19P  215P  0.00P  499P  15.3P     
12/13/2018 11:30 CST4.18P  211P  0.00P  499P  15.4P     
12/13/2018 11:45 CST4.17P  206P  0.00P  498P  15.5P     
12/13/2018 12:00 CST4.18P  211P  0.00P  499P  15.5P  1.21P  
12/13/2018 12:15 CST4.18P  211P  0.00P  499P  15.6P     
12/13/2018 12:30 CST4.18P  211P  0.00P  498P  15.6P     
12/13/2018 12:45 CST4.19P  215P  0.00P  499P  15.7P     
12/13/2018 13:00 CST4.19P  215P  0.00P  498P  15.8P  1.21P  
12/13/2018 13:15 CST4.18P  211P  0.00P  498P  15.8P     
12/13/2018 13:30 CST4.18P  211P  0.00P  498P  15.9P     
12/13/2018 13:45 CST4.18P  211P  0.00P  498P  15.9P     
12/13/2018 14:00 CST4.18P  211P  0.00P  498P  16.0P  1.21P  
12/13/2018 14:15 CST4.19P  215P  0.00P  498P  16.0P     
12/13/2018 14:30 CST4.17P  206P  0.00P  497P  16.0P     
12/13/2018 14:45 CST4.17P  206P  0.00P  498P  16.0P     
12/13/2018 15:00 CST4.17P  206P  0.00P  497P  16.0P  1.21P  
12/13/2018 15:15 CST4.18P  211P  0.00P  497P  15.9P     
12/13/2018 15:30 CST4.18P  211P  0.00P  494P  15.9P     
12/13/2018 15:45 CST4.18P  211P  0.00P  492P  15.8P     
12/13/2018 16:00 CST4.18P  211P  0.00P  492P  15.8P  1.21P  
12/13/2018 16:15 CST4.17P  206P  0.00P  491P  15.7P     
12/13/2018 16:30 CST4.16P  202P  0.00P  491P  15.6P     
12/13/2018 16:45 CST4.17P  206P  0.00P  491P  15.6P     
12/13/2018 17:00 CST4.18P  211P  0.00P  491P  15.5P  1.21P  
12/13/2018 17:15 CST4.18P  211P  0.00P  491P  15.4P     
12/13/2018 17:30 CST4.18P  211P  0.00P  490P  15.4P     
12/13/2018 17:45 CST4.18P  211P  0.00P  491P  15.3P     
12/13/2018 18:00 CST4.18P  211P  0.00P  491P  15.2P  1.21P  
12/13/2018 18:15 CST4.19P  215P  0.00P  490P  15.2P     
12/13/2018 18:30 CST4.19P  215P  0.00P  490P  15.1P     
12/13/2018 18:45 CST4.17P  206P  0.00P  491P  15.1P     
12/13/2018 19:00 CST4.18P  211P  0.00P  490P  15.0P  1.21P  
12/13/2018 19:15 CST4.18P  211P  0.00P  491P  14.9P     
12/13/2018 19:30 CST4.18P  211P  0.00P  490P  14.9P     
12/13/2018 19:45 CST4.18P  211P  0.00P  490P  14.8P     
12/13/2018 20:00 CST4.18P  211P  0.00P  490P  14.7P  1.21P  
12/13/2018 20:15 CST4.19P  215P  0.00P  490P  14.7P     
12/13/2018 20:30 CST4.19P  215P  0.00P  490P  14.7P     
12/13/2018 20:45 CST4.19P  215P  0.00P  490P  14.6P     
12/13/2018 21:00 CST4.18P  211P  0.00P  489P  14.5P  1.21P  
12/13/2018 21:15 CST4.18P  211P  0.00P  489P  14.4P     
12/13/2018 21:30 CST4.19P  215P  0.00P  490P  14.4P     
12/13/2018 21:45 CST4.20P  220P  0.00P  489P  14.3P     
12/13/2018 22:00 CST4.20P  220P  0.00P  488P  14.2P  1.21P  
12/13/2018 22:15 CST4.18P  211P  0.00P  489P  14.2P     
12/13/2018 22:30 CST4.19P  215P  0.00P  489P  14.2P     
12/13/2018 22:45 CST4.19P  215P  0.00P  489P  14.1P     
12/13/2018 23:00 CST4.19P  215P  0.00P  489P  14.1P  1.21P  
12/13/2018 23:15 CST4.19P  215P  0.00P  489P  14.0P     
12/13/2018 23:30 CST4.19P  215P  0.00P  489P  14.0P     
12/13/2018 23:45 CST4.19P  215P  0.00P  489P  14.0P     
12/14/2018 00:00 CST4.19P  215P  0.00P  489P  13.9P  1.21P  
12/14/2018 00:15 CST4.19P  215P  0.00P  488P  13.9P     
12/14/2018 00:30 CST4.18P  211P  0.00P  488P  13.8P     
12/14/2018 00:45 CST4.19P  215P  0.00P  488P  13.8P     
12/14/2018 01:00 CST4.18P  211P  0.00P  488P  13.8P  1.21P  
12/14/2018 01:15 CST4.18P  211P  0.00P  489P  13.7P     
12/14/2018 01:30 CST4.19P  215P  0.00P  488P  13.7P     
12/14/2018 01:45 CST4.17P  206P  0.00P  488P  13.6P     
12/14/2018 02:00 CST4.18P  211P  0.00P  488P  13.6P  1.21P  
12/14/2018 02:15 CST4.18P  211P  0.00P  488P  13.5P     
12/14/2018 02:30 CST4.18P  211P  0.00P  488P  13.5P     
12/14/2018 02:45 CST4.18P  211P  0.00P  488P  13.4P     
12/14/2018 03:00 CST4.18P  211P  0.00P  487P  13.4P  1.21P  
12/14/2018 03:15 CST4.18P  211P  0.00P  488P  13.3P     
12/14/2018 03:30 CST4.17P  206P  0.00P  488P  13.3P     
12/14/2018 03:45 CST4.18P  211P  0.00P  488P  13.2P     
12/14/2018 04:00 CST4.17P  206P  0.00P  488P  13.2P  1.21P  
12/14/2018 04:15 CST4.17P  206P  0.00P  488P  13.1P     
12/14/2018 04:30 CST4.18P  211P  0.00P  487P  13.1P     
12/14/2018 04:45 CST4.18P  211P  0.00P  488P  13.0P     
12/14/2018 05:00 CST4.17P  206P  0.00P  488P  13.0P  1.21P  
12/14/2018 05:15 CST4.17P  206P  0.00P  487P  12.9P     
12/14/2018 05:30 CST4.17P  206P  0.00P  487P  12.9P     
12/14/2018 05:45 CST4.17P  206P  0.00P  487P  12.8P     
12/14/2018 06:00 CST4.17P  206P  0.00P  487P  12.8P  1.21P  
12/14/2018 06:15 CST4.18P  211P  0.00P  487P  12.8P     
12/14/2018 06:30 CST4.18P  211P  0.00P  487P  12.7P     
12/14/2018 06:45 CST4.17P  206P  0.00P  487P  12.7P     
12/14/2018 07:00 CST4.17P  206P  0.00P  487P  12.6P  1.21P  
12/14/2018 07:15 CST4.19P  215P  0.00P  487P  12.6P     
12/14/2018 07:30 CST4.17P  206P  0.00P  487P  12.6P     
12/14/2018 07:45 CST4.18P  211P  0.00P  487P  12.5P     
12/14/2018 08:00 CST4.18P  211P  0.00P  487P  12.5P  1.21P  
12/14/2018 08:15 CST4.18P  211P  0.00P  488P  12.4P     
12/14/2018 08:30 CST4.18P  211P  0.00P  488P  12.4P     
12/14/2018 08:45 CST4.18P  211P  0.00P  488P  12.4P     
12/14/2018 09:00 CST4.17P  206P  0.00P  488P  12.4P  1.21P  
12/14/2018 09:15 CST4.16P  202P  0.00P  489P  12.4P     
12/14/2018 09:30 CST4.16P  202P  0.00P  489P  12.4P     
12/14/2018 09:45 CST4.18P  211P  0.00P  490P  12.4P     
12/14/2018 10:00 CST4.17P  206P  0.00P  490P  12.5P  1.21P  
12/14/2018 10:15 CST4.17P  206P  0.00P  490P  12.5P     
12/14/2018 10:30 CST4.18P  211P  0.00P  490P  12.5P     
12/14/2018 10:45 CST4.18P  211P  0.00P  490P  12.6P     
12/14/2018 11:00 CST4.17P  206P  0.00P  490P  12.6P  1.21P  
12/14/2018 11:15 CST4.17P  206P  0.00P  490P  12.7P     
12/14/2018 11:30 CST4.18P  211P  0.00P  490P  12.7P     
12/14/2018 11:45 CST4.18P  211P  0.00P  491P  12.8P     
12/14/2018 12:00 CST4.18P  211P  0.00P  491P  12.9P  1.21P  
12/14/2018 12:15 CST4.18P  211P  0.00P  491P  12.9P     
12/14/2018 12:30 CST4.17P  206P  0.00P  491P  13.0P     
12/14/2018 12:45 CST4.17P  206P  0.00P  491P  13.1P     
12/14/2018 13:00 CST4.18P  211P  0.00P  491P  13.1P  1.21P  
12/14/2018 13:15 CST4.17P  206P  0.00P  492P  13.2P     
12/14/2018 13:30 CST4.18P  211P  0.00P  492P  13.2P     
12/14/2018 13:45 CST4.17P  206P  0.00P  493P  13.3P     
12/14/2018 14:00 CST4.18P  211P  0.00P  493P  13.4P  1.21P  
12/14/2018 14:15 CST4.18P  211P  0.00P  493P  13.4P     
12/14/2018 14:30 CST4.18P  211P  0.00P  494P  13.5P     
12/14/2018 14:45 CST4.17P  206P  0.00P  494P  13.5P     
12/14/2018 15:00 CST4.16P  202P  0.00P  494P  13.6P  1.21P  
12/14/2018 15:15 CST4.17P  206P  0.00P  494P  13.6P     
12/14/2018 15:30 CST4.17P  206P  0.00P  494P  13.6P     
12/14/2018 15:45 CST4.17P  206P  0.00P  495P  13.7P     
12/14/2018 16:00 CST4.18P  211P  0.00P  494P  13.7P  1.21P  
12/14/2018 16:15 CST4.18P  211P  0.00P  494P  13.7P     
12/14/2018 16:30 CST4.17P  206P  0.00P  494P  13.7P     
12/14/2018 16:45 CST4.18P  211P  0.00P  494P  13.7P     
12/14/2018 17:00 CST4.18P  211P  0.00P  494P  13.7P  1.21P  
12/14/2018 17:15 CST4.17P  206P  0.00P  494P  13.7P     
12/14/2018 17:30 CST4.17P  206P  0.00P  493P  13.7P     
12/14/2018 17:45 CST4.17P  206P  0.00P  493P  13.7P     
12/14/2018 18:00 CST4.18P  211P  0.00P  493P  13.6P  1.21P  
12/14/2018 18:15 CST4.18P  211P  0.00P  492P  13.6P     
12/14/2018 18:30 CST4.17P  206P  0.00P  490P  13.5P     
12/14/2018 18:45 CST4.17P  206P  0.00P  489P  13.5P     
12/14/2018 19:00 CST4.18P  211P  0.00P  489P  13.4P  1.21P  
12/14/2018 19:15 CST4.18P  211P  0.00P  490P  13.4P     
12/14/2018 19:30 CST4.17P  206P  0.00P  490P  13.3P     
12/14/2018 19:45 CST4.17P  206P  0.00P  489P  13.3P     
12/14/2018 20:00 CST4.17P  206P  0.00P  490P  13.3P  1.20P  
12/14/2018 20:15 CST4.17P  206P  0.00P  489P  13.2P     
12/14/2018 20:30 CST4.17P  206P  0.00P  489P  13.2P     
12/14/2018 20:45 CST4.17P  206P  0.00P  490P  13.1P     
12/14/2018 21:00 CST4.17P  206P  0.00P  489P  13.1P  1.21P  
12/14/2018 21:15 CST4.17P  206P  0.00P  489P  13.1P     
12/14/2018 21:30 CST4.17P  206P  0.00P  489P  13.1P     
12/14/2018 21:45 CST4.17P  206P  0.00P  489P  13.0P     
12/14/2018 22:00 CST4.16P  202P  0.00P  489P  13.0P  1.21P  
12/14/2018 22:15 CST4.17P  206P  0.00P  489P  12.9P     
12/14/2018 22:30 CST4.17P  206P  0.00P  489P  12.9P     
12/14/2018 22:45 CST4.17P  206P  0.00P  489P  12.9P     
12/14/2018 23:00 CST4.17P  206P  0.00P  489P  12.8P  1.20P  
12/14/2018 23:15 CST4.17P  206P  0.00P  489P  12.8P     
12/14/2018 23:30 CST4.17P  206P  0.00P  489P  12.8P     
12/14/2018 23:45 CST4.17P  206P  0.00P  489P  12.8P     
12/15/2018 00:00 CST4.17P  206P  0.00P  489P  12.8P  1.20P  
12/15/2018 00:15 CST4.17P  206P  0.00P  489P  12.7P     
12/15/2018 00:30 CST4.17P  206P  0.00P  489P  12.7P     
12/15/2018 00:45 CST4.16P  202P  0.00P  490P  12.7P     
12/15/2018 01:00 CST4.17P  206P  0.00P  490P  12.6P  1.20P  
12/15/2018 01:15 CST4.17P  206P  0.00P  490P  12.6P     
12/15/2018 01:30 CST4.17P  206P  0.00P  490P  12.6P     
12/15/2018 01:45 CST4.17P  206P  0.00P  490P  12.5P     
12/15/2018 02:00 CST4.17P  206P  0.00P  490P  12.5P  1.20P  
12/15/2018 02:15 CST4.16P  202P  0.00P  490P  12.4P     
12/15/2018 02:30 CST4.17P  206P  0.00P  490P  12.4P     
12/15/2018 02:45 CST4.17P  206P  0.00P  491P  12.4P     
12/15/2018 03:00 CST4.17P  206P  0.00P  491P  12.3P  1.20P  
12/15/2018 03:15 CST4.17P  206P  0.00P  491P  12.3P     
12/15/2018 03:30 CST4.16P  202P  0.00P  491P  12.2P     
12/15/2018 03:45 CST4.16P  202P  0.00P  491P  12.2P     
12/15/2018 04:00 CST4.16P  202P  0.00P  492P  12.2P  1.21P  
12/15/2018 04:15 CST4.17P  206P  0.00P  492P  12.2P     
12/15/2018 04:30 CST4.17P  206P  0.00P  493P  12.1P     
12/15/2018 04:45 CST4.17P  206P  0.00P  493P  12.1P     
12/15/2018 05:00 CST4.16P  202P  0.00P  493P  12.0P  1.21P  
12/15/2018 05:15 CST4.16P  202P  0.00P  494P  12.0P     
12/15/2018 05:30 CST4.16P  202P  0.00P  494P  12.0P     
12/15/2018 05:45 CST4.16P  202P  0.00P  494P  12.0P     
12/15/2018 06:00 CST4.16P  202P  0.00P  494P  12.0P  1.21P  
12/15/2018 06:15 CST4.16P  202P  0.00P  494P  11.9P     
12/15/2018 06:30 CST4.16P  202P  0.00P  494P  11.9P     
12/15/2018 06:45 CST4.16P  202P  0.00P  495P  11.9P     
12/15/2018 07:00 CST4.16P  202P  0.00P  495P  11.9P  1.21P  
12/15/2018 07:15 CST4.16P  202P  0.00P  495P  11.9P     
12/15/2018 07:30 CST4.16P  202P  0.00P  495P  11.8P     
12/15/2018 07:45 CST4.16P  202P  0.00P  495P  11.8P     
12/15/2018 08:00 CST4.16P  202P  0.00P  495P  11.8P  1.21P  
12/15/2018 08:15 CST4.16P  202P  0.00P  495P  11.8P     
12/15/2018 08:30 CST4.16P  202P  0.00P  495P  11.8P     
12/15/2018 08:45 CST4.16P  202P  0.00P  495P  11.8P     
12/15/2018 09:00 CST4.16P  202P  0.00P  495P  11.9P  1.21P  
12/15/2018 09:15 CST4.16P  202P  0.00P  495P  11.9P     
12/15/2018 09:30 CST4.15P  198P  0.00P  495P  12.0P     
12/15/2018 09:45 CST4.16P  202P  0.00P  496P  12.0P     
12/15/2018 10:00 CST4.16P  202P  0.00P  496P  12.0P  1.21P  
12/15/2018 10:15 CST4.16P  202P  0.00P  497P  12.1P     
12/15/2018 10:30 CST4.16P  202P  0.00P  497P  12.2P     
12/15/2018 10:45 CST4.17P  206P  0.00P  497P  12.3P     
12/15/2018 11:00 CST4.16P  202P  0.00P  497P  12.3P  1.21P  
12/15/2018 11:15 CST4.17P  206P  0.00P  497P  12.4P     
12/15/2018 11:30 CST4.16P  202P  0.00P  497P  12.5P     
12/15/2018 11:45 CST4.16P  202P  0.00P  497P  12.6P     
12/15/2018 12:00 CST4.16P  202P  0.00P  497P  12.6P  1.21P  
12/15/2018 12:15 CST4.16P  202P  0.00P  497P  12.7P     
12/15/2018 12:30 CST4.16P  202P  0.00P  497P  12.8P     
12/15/2018 12:45 CST4.16P  202P  0.00P  497P  12.9P     
12/15/2018 13:00 CST4.16P  202P  0.00P  497P  13.0P  1.21P  
12/15/2018 13:15 CST4.16P  202P  0.00P  497P  13.1P     
12/15/2018 13:30 CST4.16P  202P  0.00P  497P  13.2P     
12/15/2018 13:45 CST4.16P  202P  0.00P  497P  13.4P     
12/15/2018 14:00 CST4.16P  202P  0.00P  497P  13.5P  1.20P  
12/15/2018 14:15 CST4.16P  202P  0.00P  497P  13.6P     
12/15/2018 14:30 CST4.17P  206P  0.00P  497P  13.6P     
12/15/2018 14:45 CST4.16P  202P  0.00P  497P  13.7P     
12/15/2018 15:00 CST4.17P  206P  0.00P  497P  13.8P  1.20P  
12/15/2018 15:15 CST4.16P  202P  0.00P  497P  13.9P     
12/15/2018 15:30 CST4.16P  202P  0.00P  497P  13.9P     
12/15/2018 15:45 CST4.16P  202P  0.00P  497P  14.0P     
12/15/2018 16:00 CST4.16P  202P  0.00P  498P  14.0P  1.21P  
12/15/2018 16:15 CST4.16P  202P  0.00P  497P  14.1P     
12/15/2018 16:30 CST4.16P  202P  0.00P  497P  14.1P     
12/15/2018 16:45 CST4.16P  202P  0.00P  498P  14.2P     
12/15/2018 17:00 CST4.16P  202P  0.00P  498P  14.2P  1.21P  
12/15/2018 17:15 CST4.16P  202P  0.00P  497P  14.2P     
12/15/2018 17:30 CST4.16P  202P  0.00P  497P  14.2P     
12/15/2018 17:45 CST4.16P  202P  0.00P  497P  14.2P     
12/15/2018 18:00 CST4.16P  202P  0.00P  497P  14.2P  1.21P  
12/15/2018 18:15 CST4.16P  202P  0.00P  498P  14.2P     
12/15/2018 18:30 CST4.16P  202P  0.00P  497P  14.2P     
12/15/2018 18:45 CST4.16P  202P  0.00P  493P  14.2P     
12/15/2018 19:00 CST4.16P  202P  0.00P  492P  14.1P  1.21P  
12/15/2018 19:15 CST4.16P  202P  0.00P  491P  14.0P     
12/15/2018 19:30 CST4.16P  202P  0.00P  491P  14.0P     
12/15/2018 19:45 CST4.16P  202P  0.00P  491P  14.0P     
12/15/2018 20:00 CST4.16P  202P  0.00P  491P  13.9P  1.20P  
12/15/2018 20:15 CST4.16P  202P  0.00P  491P  13.8P     

Explanation
  P  Provisional data subject to revision.